createdAt,value
2017-08-07T00:00:34.594Z,20.30
2017-08-07T00:03:00.715Z,20.00
2017-08-07T00:05:26.771Z,20.00
2017-08-07T00:07:52.836Z,20.00
2017-08-07T00:10:18.899Z,20.10
2017-08-07T00:12:44.963Z,20.20
2017-08-07T00:15:11.023Z,20.20
2017-08-07T00:17:37.834Z,20.00
2017-08-07T00:20:04.691Z,20.00
2017-08-07T00:22:30.754Z,20.00
2017-08-07T00:24:56.825Z,19.90
2017-08-07T00:27:22.882Z,19.70
2017-08-07T00:29:48.963Z,19.70
2017-08-07T00:32:15.040Z,19.70
2017-08-07T00:34:41.114Z,19.60
2017-08-07T00:37:07.179Z,19.60
2017-08-07T00:39:33.243Z,19.60
2017-08-07T00:41:59.434Z,19.60
2017-08-07T00:44:25.506Z,19.50
2017-08-07T00:46:51.591Z,19.50
2017-08-07T00:49:17.659Z,19.50
2017-08-07T00:51:43.717Z,19.50
2017-08-07T00:54:09.796Z,19.50
2017-08-07T00:56:36.595Z,19.40
2017-08-07T00:59:02.659Z,19.40
2017-08-07T01:01:28.721Z,19.50
2017-08-07T01:03:55.600Z,19.50
2017-08-07T01:06:21.678Z,19.50
2017-08-07T01:08:47.730Z,19.40
2017-08-07T01:11:13.834Z,19.40
2017-08-07T01:13:39.898Z,19.40
2017-08-07T01:42:51.491Z,19.10
2017-08-07T01:45:17.681Z,19.10
2017-08-07T01:47:43.741Z,19.10
2017-08-07T01:50:09.781Z,19.00
2017-08-07T01:52:35.817Z,19.00
2017-08-07T01:55:01.854Z,19.00
2017-08-07T01:57:28.643Z,19.10
2017-08-07T01:59:54.673Z,19.10
2017-08-07T02:02:20.709Z,19.00
2017-08-07T02:04:46.729Z,19.00
2017-08-07T02:07:13.547Z,18.90
2017-08-07T02:09:39.598Z,18.90
2017-08-07T02:12:05.638Z,18.90
2017-08-07T02:14:31.667Z,18.80
2017-08-07T02:16:57.705Z,18.80
2017-08-07T02:19:23.725Z,18.80
2017-08-07T02:21:57.603Z,18.80
2017-08-07T02:24:23.640Z,18.90
2017-08-07T02:26:49.665Z,18.90
2017-08-07T02:29:24.210Z,18.70
2017-08-07T02:31:50.270Z,18.70
2017-08-07T02:34:16.298Z,18.70
2017-08-07T02:36:42.333Z,18.70
2017-08-07T02:39:08.367Z,18.70
2017-08-07T02:41:34.392Z,18.60
2017-08-07T02:44:00.431Z,18.60
2017-08-07T02:46:26.475Z,18.60
2017-08-07T02:48:52.511Z,18.60
2017-08-07T02:51:19.518Z,18.60
2017-08-07T02:53:45.551Z,18.60
2017-08-07T02:56:11.585Z,18.70
2017-08-07T02:58:38.918Z,18.60
2017-08-07T03:01:04.950Z,18.50
2017-08-07T03:03:30.982Z,18.50
2017-08-07T03:05:57.019Z,18.60
2017-08-07T03:08:23.051Z,18.40
2017-08-07T03:10:49.087Z,18.40
2017-08-07T11:57:21.765Z,22.90
2017-08-07T11:59:47.910Z,22.80
2017-08-07T12:02:13.959Z,22.80
2017-08-07T12:04:40.010Z,22.80
2017-08-07T12:07:06.073Z,22.80
2017-08-07T12:09:32.122Z,22.80
2017-08-07T12:11:58.160Z,22.90
2017-08-07T12:14:24.214Z,22.90
2017-08-07T12:16:50.272Z,22.90
